createdAt,value
2024-01-26T00:00:13.216Z,11.52
2024-01-26T00:01:15.758Z,11.45
2024-01-26T00:02:21.093Z,11.40
2024-01-26T00:03:24.367Z,11.48
2024-01-26T00:04:27.855Z,11.69
2024-01-26T00:05:31.377Z,11.81
2024-01-26T00:06:36.399Z,11.79
2024-01-26T00:07:38.851Z,11.98
2024-01-26T00:08:42.600Z,11.82
2024-01-26T00:09:44.903Z,11.74
2024-01-26T00:10:48.309Z,11.74
2024-01-26T00:11:50.918Z,11.81
2024-01-26T00:12:53.363Z,11.58
2024-01-26T00:13:57.011Z,11.43
2024-01-26T00:15:00.325Z,11.51
2024-01-26T00:16:05.995Z,11.48
2024-01-26T00:17:08.365Z,11.66
2024-01-26T00:18:11.648Z,11.67
2024-01-26T00:19:14.327Z,11.73
2024-01-26T00:20:16.625Z,11.70
2024-01-26T00:21:21.455Z,11.66
2024-01-26T00:22:23.899Z,11.78
2024-01-26T00:23:29.995Z,11.71
2024-01-26T00:24:32.308Z,11.67
2024-01-26T00:25:36.493Z,11.61
2024-01-26T00:26:38.828Z,11.78
2024-01-26T00:27:42.151Z,11.83
2024-01-26T00:28:44.448Z,11.86
2024-01-26T00:29:47.720Z,11.85
2024-01-26T00:30:50.075Z,12.00
2024-01-26T00:31:54.909Z,11.98
2024-01-26T00:32:58.253Z,11.99
2024-01-26T00:34:01.672Z,12.03
2024-01-26T00:35:05.591Z,12.13
2024-01-26T00:36:09.373Z,11.90
2024-01-26T00:37:11.634Z,11.74
2024-01-26T00:38:15.836Z,11.70
2024-01-26T00:39:18.582Z,11.69
2024-01-26T00:40:21.920Z,11.66
2024-01-26T00:41:24.492Z,11.74
2024-01-26T00:42:28.082Z,11.84
2024-01-26T00:43:30.457Z,11.97
2024-01-26T00:44:33.726Z,11.72
2024-01-26T00:45:36.195Z,11.68
2024-01-26T00:46:39.994Z,11.53
2024-01-26T00:47:43.768Z,11.60
2024-01-26T00:48:47.643Z,11.64
2024-01-26T00:49:52.985Z,11.75
2024-01-26T00:50:57.616Z,11.60
2024-01-26T00:52:00.022Z,11.62
2024-01-26T00:53:05.102Z,11.72
2024-01-26T00:54:07.823Z,11.54
2024-01-26T00:55:11.514Z,11.70
2024-01-26T00:56:15.046Z,11.75
2024-01-26T00:57:18.545Z,11.82
2024-01-26T00:58:21.167Z,11.93
2024-01-26T00:59:24.825Z,12.02
2024-01-26T01:00:27.871Z,11.95
2024-01-26T01:01:31.233Z,12.02
2024-01-26T01:02:33.627Z,12.03
2024-01-26T01:03:43.438Z,11.90
2024-01-26T01:04:46.781Z,11.94
2024-01-26T01:05:50.889Z,11.82
2024-01-26T01:06:53.688Z,12.03
2024-01-26T01:07:56.975Z,11.96
2024-01-26T01:08:59.192Z,11.88
2024-01-26T01:10:01.536Z,11.60
2024-01-26T01:11:07.468Z,11.68
2024-01-26T01:12:09.808Z,11.67
2024-01-26T01:13:12.973Z,11.58
2024-01-26T01:14:19.614Z,11.64
2024-01-26T01:15:24.931Z,11.83
2024-01-26T01:16:29.339Z,11.82
2024-01-26T01:17:31.846Z,11.85
2024-01-26T01:18:35.325Z,11.76
2024-01-26T01:19:39.276Z,11.67
2024-01-26T01:20:43.202Z,11.67
2024-01-26T01:21:46.741Z,11.77
2024-01-26T01:22:50.092Z,11.84
2024-01-26T01:23:52.442Z,11.99
2024-01-26T01:24:55.791Z,12.14
2024-01-26T01:25:58.151Z,12.25
2024-01-26T01:27:00.589Z,12.41
2024-01-26T01:28:04.723Z,12.25
2024-01-26T01:29:07.836Z,11.90
2024-01-26T01:30:11.846Z,11.93
2024-01-26T01:31:14.306Z,11.87
2024-01-26T01:32:17.601Z,11.94
2024-01-26T01:33:20.371Z,11.83
2024-01-26T01:34:24.686Z,11.78
2024-01-26T01:35:29.063Z,11.61
2024-01-26T01:36:32.745Z,11.59
2024-01-26T01:37:35.058Z,11.78
2024-01-26T01:38:38.728Z,11.80
2024-01-26T01:39:41.052Z,11.98
2024-01-26T01:40:46.013Z,11.97
2024-01-26T01:41:49.068Z,11.99
2024-01-26T01:42:51.311Z,12.17
2024-01-26T01:43:57.800Z,12.43
2024-01-26T01:45:00.280Z,12.56
2024-01-26T01:46:03.931Z,12.65
2024-01-26T01:47:06.115Z,12.71
2024-01-26T01:48:08.654Z,12.79
2024-01-26T01:49:12.323Z,12.83
2024-01-26T01:50:15.298Z,12.83
2024-01-26T01:51:20.334Z,12.84
2024-01-26T01:52:24.852Z,12.89
2024-01-26T01:53:30.761Z,12.87
2024-01-26T01:54:34.723Z,12.92
2024-01-26T01:55:39.296Z,13.01
2024-01-26T01:56:44.349Z,12.92
2024-01-26T01:57:51.152Z,13.07
2024-01-26T01:58:55.105Z,12.98
2024-01-26T01:59:58.801Z,12.94
2024-01-26T02:01:03.378Z,12.96
2024-01-26T02:02:07.403Z,12.91
2024-01-26T02:03:10.217Z,12.45
2024-01-26T02:04:13.626Z,12.33
2024-01-26T02:05:17.361Z,12.35
2024-01-26T02:06:21.955Z,12.35
2024-01-26T02:07:26.298Z,12.16
2024-01-26T02:08:28.638Z,12.17
2024-01-26T02:09:32.592Z,12.24
2024-01-26T02:10:35.046Z,12.28
2024-01-26T02:11:38.299Z,12.42
2024-01-26T02:12:40.531Z,12.49
2024-01-26T02:13:44.060Z,12.48
2024-01-26T02:14:46.488Z,12.51
2024-01-26T02:15:49.936Z,12.61
2024-01-26T02:16:56.435Z,12.68
2024-01-26T02:18:00.845Z,12.80
2024-01-26T02:19:03.411Z,12.83
2024-01-26T02:20:07.271Z,12.86
2024-01-26T02:21:10.554Z,12.74
2024-01-26T02:22:14.178Z,12.63
2024-01-26T02:23:24.324Z,12.67
2024-01-26T02:24:26.613Z,12.79
2024-01-26T02:25:29.787Z,12.85
2024-01-26T02:26:32.089Z,12.87
2024-01-26T02:27:36.590Z,12.95
2024-01-26T02:28:38.978Z,12.99
2024-01-26T02:29:42.513Z,13.06
2024-01-26T02:30:45.041Z,13.06
2024-01-26T02:31:48.424Z,13.04
2024-01-26T02:32:50.888Z,12.91
2024-01-26T02:33:54.418Z,12.86
2024-01-26T02:34:56.769Z,12.75
2024-01-26T02:36:00.107Z,12.71
2024-01-26T02:37:02.508Z,12.61
2024-01-26T02:38:05.820Z,12.55
2024-01-26T02:39:09.557Z,12.52
2024-01-26T02:40:13.902Z,12.54
2024-01-26T02:41:17.239Z,12.49
2024-01-26T02:42:20.765Z,12.58
2024-01-26T02:43:23.010Z,12.66
2024-01-26T02:44:26.301Z,12.57
2024-01-26T02:45:28.957Z,12.55
2024-01-26T02:46:32.494Z,12.46
2024-01-26T02:47:35.005Z,12.50
2024-01-26T02:48:38.951Z,12.55
2024-01-26T02:49:43.042Z,12.69
2024-01-26T02:50:46.483Z,12.75
2024-01-26T02:51:48.691Z,12.68
2024-01-26T02:52:52.091Z,12.77
2024-01-26T02:53:54.392Z,12.87
2024-01-26T02:54:59.142Z,12.95
2024-01-26T02:56:01.383Z,13.01
2024-01-26T02:57:04.804Z,13.04
2024-01-26T02:58:07.208Z,13.02
2024-01-26T02:59:10.564Z,13.00
2024-01-26T03:00:14.126Z,13.02
2024-01-26T03:01:17.464Z,13.11
2024-01-26T03:02:19.917Z,13.14
2024-01-26T03:03:23.173Z,13.17
2024-01-26T03:04:25.549Z,13.16
2024-01-26T03:05:29.261Z,13.10
2024-01-26T03:06:31.792Z,13.18
2024-01-26T03:07:35.016Z,13.18
2024-01-26T03:08:37.673Z,13.25
2024-01-26T03:09:40.982Z,13.32
2024-01-26T03:10:44.894Z,13.35
2024-01-26T03:11:47.491Z,13.40
2024-01-26T03:12:51.058Z,13.42
2024-01-26T03:13:53.751Z,13.44
2024-01-26T03:14:57.081Z,13.42
2024-01-26T03:15:59.356Z,13.41
2024-01-26T03:17:02.786Z,13.39
2024-01-26T03:18:05.849Z,13.43
2024-01-26T03:19:09.041Z,13.50
2024-01-26T03:20:13.253Z,13.47
2024-01-26T03:21:15.649Z,13.42
2024-01-26T03:22:18.918Z,13.46
2024-01-26T03:23:21.177Z,13.46
2024-01-26T03:24:24.508Z,13.43
2024-01-26T03:25:26.833Z,13.22
2024-01-26T03:26:30.594Z,13.04
2024-01-26T03:27:34.209Z,12.89
2024-01-26T03:28:36.526Z,12.66
2024-01-26T03:29:39.889Z,12.40
2024-01-26T03:30:46.688Z,12.46
2024-01-26T03:31:51.524Z,12.42
2024-01-26T03:32:53.968Z,12.58
2024-01-26T03:33:57.826Z,12.65
2024-01-26T03:35:01.321Z,12.46
2024-01-26T03:36:03.921Z,12.45
2024-01-26T03:37:07.212Z,12.52
2024-01-26T03:38:09.375Z,12.60
2024-01-26T03:39:12.958Z,12.79
2024-01-26T03:40:15.645Z,12.89
2024-01-26T03:41:18.993Z,13.01
2024-01-26T03:42:22.739Z,13.02
2024-01-26T03:43:26.019Z,12.98
2024-01-26T03:44:28.366Z,12.96
2024-01-26T03:45:31.710Z,12.93
2024-01-26T03:46:34.206Z,12.94
2024-01-26T03:47:37.480Z,12.90
2024-01-26T03:48:39.942Z,12.90
2024-01-26T03:49:46.051Z,12.85
2024-01-26T03:50:48.503Z,12.85
2024-01-26T03:51:51.777Z,12.92
2024-01-26T03:52:54.456Z,12.90
2024-01-26T03:53:57.837Z,12.95
2024-01-26T03:55:01.121Z,12.62
2024-01-26T03:56:03.870Z,12.40
2024-01-26T03:57:07.766Z,12.32
2024-01-26T03:58:11.709Z,12.21
2024-01-26T03:59:15.149Z,12.15
2024-01-26T04:00:18.646Z,12.10
2024-01-26T04:01:22.171Z,12.14
2024-01-26T04:02:24.449Z,12.20
2024-01-26T04:03:28.082Z,12.01
2024-01-26T04:04:30.429Z,12.04
2024-01-26T04:05:33.724Z,12.00
2024-01-26T04:06:40.347Z,11.93
2024-01-26T04:07:44.193Z,12.00
2024-01-26T04:08:46.538Z,11.98
2024-01-26T04:09:49.886Z,11.97
2024-01-26T04:10:52.193Z,11.97
2024-01-26T04:11:55.482Z,12.00
2024-01-26T04:12:57.840Z,11.84
2024-01-26T04:14:02.540Z,11.83
2024-01-26T04:15:05.545Z,11.95
2024-01-26T04:16:09.065Z,12.03
2024-01-26T04:17:11.618Z,11.96
2024-01-26T04:18:15.523Z,11.98
2024-01-26T04:19:18.339Z,12.13
2024-01-26T04:20:21.791Z,12.10
2024-01-26T04:21:24.576Z,12.03
2024-01-26T04:22:27.017Z,11.94
2024-01-26T04:23:30.412Z,11.91
2024-01-26T04:24:35.340Z,11.99
2024-01-26T04:25:39.099Z,12.02
2024-01-26T04:26:41.467Z,12.03
2024-01-26T04:27:44.765Z,11.93
2024-01-26T04:28:47.049Z,11.93
2024-01-26T04:29:51.784Z,11.84
2024-01-26T04:30:54.666Z,11.78
2024-01-26T04:31:58.020Z,11.79
2024-01-26T04:33:01.204Z,11.98
2024-01-26T04:34:04.749Z,12.05
2024-01-26T04:35:08.008Z,11.85
2024-01-26T04:36:11.467Z,11.92
2024-01-26T04:37:15.095Z,11.93
2024-01-26T04:38:17.624Z,11.98
2024-01-26T04:39:21.134Z,12.00
2024-01-26T04:40:23.881Z,11.97
2024-01-26T04:41:27.172Z,12.06
2024-01-26T04:42:29.407Z,12.14
2024-01-26T04:43:32.659Z,12.20
2024-01-26T04:44:36.325Z,12.14
2024-01-26T04:45:42.282Z,12.13
2024-01-26T04:46:44.651Z,12.17
2024-01-26T04:47:48.051Z,12.17
2024-01-26T04:48:50.754Z,12.11
2024-01-26T04:49:54.099Z,12.14
2024-01-26T04:50:57.376Z,12.26
2024-01-26T04:52:02.563Z,12.19
2024-01-26T04:53:07.209Z,11.96
2024-01-26T04:54:09.432Z,11.99
2024-01-26T04:55:13.118Z,12.05
2024-01-26T04:56:15.834Z,12.05
2024-01-26T04:57:19.271Z,12.06
2024-01-26T04:58:21.618Z,12.20
2024-01-26T04:59:25.089Z,12.18
2024-01-26T05:00:27.606Z,12.29
2024-01-26T05:01:32.540Z,12.21
2024-01-26T05:02:35.040Z,12.18
2024-01-26T05:03:38.432Z,11.99
2024-01-26T05:04:40.746Z,11.82
2024-01-26T05:05:44.106Z,11.73
2024-01-26T05:06:46.840Z,11.79
2024-01-26T05:07:50.150Z,11.81
2024-01-26T05:08:53.265Z,11.89
2024-01-26T05:09:56.588Z,11.85
2024-01-26T05:10:58.940Z,11.83
2024-01-26T05:12:02.405Z,11.90
2024-01-26T05:13:04.864Z,12.00
2024-01-26T05:14:08.660Z,12.13
2024-01-26T05:15:12.607Z,12.20
2024-01-26T05:16:16.518Z,12.13
2024-01-26T05:17:20.368Z,12.03
2024-01-26T05:18:23.767Z,12.03
2024-01-26T05:19:26.215Z,12.09
2024-01-26T05:20:29.434Z,11.91
2024-01-26T05:21:31.763Z,11.75
2024-01-26T05:22:35.096Z,11.58
2024-01-26T05:23:37.603Z,11.83
2024-01-26T05:24:41.077Z,11.69
2024-01-26T05:25:43.338Z,11.76
2024-01-26T05:26:46.654Z,11.80
2024-01-26T05:27:48.869Z,11.91
2024-01-26T05:28:52.204Z,11.95
2024-01-26T05:29:54.626Z,12.00
2024-01-26T05:30:58.177Z,12.00
2024-01-26T05:32:00.538Z,12.06
2024-01-26T05:33:06.002Z,12.11
2024-01-26T05:34:08.468Z,12.00
2024-01-26T05:35:12.028Z,11.91
2024-01-26T05:36:14.519Z,11.95
2024-01-26T05:37:17.734Z,11.96
2024-01-26T05:38:20.472Z,11.96
2024-01-26T05:39:23.783Z,11.95
2024-01-26T05:40:26.149Z,11.97
2024-01-26T05:41:29.578Z,11.97
2024-01-26T05:42:31.957Z,12.09
2024-01-26T05:43:35.228Z,12.17
2024-01-26T05:44:37.561Z,12.06
2024-01-26T05:45:41.203Z,11.96
2024-01-26T05:46:43.439Z,11.83
2024-01-26T05:47:48.695Z,11.90
2024-01-26T05:48:52.753Z,11.94
2024-01-26T05:49:56.253Z,11.95
2024-01-26T05:50:58.623Z,11.83
2024-01-26T05:52:02.035Z,11.77
2024-01-26T05:53:04.586Z,11.69
2024-01-26T05:54:07.960Z,11.69
2024-01-26T05:55:10.354Z,11.62
2024-01-26T05:56:13.630Z,11.61
2024-01-26T05:57:16.708Z,11.56
2024-01-26T05:58:20.057Z,11.74
2024-01-26T05:59:22.326Z,11.75
2024-01-26T06:00:25.743Z,11.75
2024-01-26T06:01:28.139Z,11.78
2024-01-26T06:02:32.078Z,11.87
2024-01-26T06:03:34.476Z,11.91
2024-01-26T06:04:39.233Z,11.92
2024-01-26T06:05:41.726Z,12.04
2024-01-26T06:06:45.257Z,12.10
2024-01-26T06:07:47.561Z,12.23
2024-01-26T06:08:50.794Z,12.37
2024-01-26T06:09:53.302Z,12.39
2024-01-26T06:10:57.968Z,12.40
2024-01-26T06:12:00.304Z,12.45
2024-01-26T06:13:03.666Z,12.53
2024-01-26T06:14:05.929Z,12.42
2024-01-26T06:15:11.101Z,12.32
2024-01-26T06:16:14.152Z,12.21
2024-01-26T06:17:17.400Z,12.17
2024-01-26T06:18:20.033Z,12.14
2024-01-26T06:19:23.538Z,12.06
2024-01-26T06:20:32.594Z,12.03
2024-01-26T06:21:35.163Z,12.10
2024-01-26T06:22:38.670Z,12.02
2024-01-26T06:23:41.240Z,12.07
2024-01-26T06:24:44.623Z,12.11
2024-01-26T06:25:46.808Z,12.12
2024-01-26T06:26:49.064Z,12.20
2024-01-26T06:27:52.381Z,12.37
2024-01-26T06:28:54.661Z,12.45
2024-01-26T06:29:58.060Z,12.50
2024-01-26T06:31:00.380Z,12.56
2024-01-26T06:32:03.755Z,12.62
2024-01-26T06:33:06.203Z,12.67
2024-01-26T06:34:09.729Z,12.68
2024-01-26T06:35:12.326Z,12.72
2024-01-26T06:36:17.002Z,12.76
2024-01-26T06:37:19.580Z,12.78
2024-01-26T06:38:22.809Z,12.82
2024-01-26T06:39:25.165Z,12.85
2024-01-26T06:40:28.740Z,12.87
2024-01-26T06:41:31.036Z,12.86
2024-01-26T06:42:34.449Z,12.62
2024-01-26T06:43:36.825Z,12.42
2024-01-26T06:44:40.456Z,12.30
2024-01-26T06:45:42.683Z,12.27
2024-01-26T06:46:45.900Z,12.11
2024-01-26T06:47:48.172Z,11.97
2024-01-26T06:48:51.869Z,11.91
2024-01-26T06:49:54.401Z,11.94
2024-01-26T06:50:57.808Z,11.99
2024-01-26T06:52:01.464Z,12.03
2024-01-26T06:53:05.382Z,12.01
2024-01-26T06:54:07.689Z,11.96
2024-01-26T06:55:11.536Z,11.85
2024-01-26T06:56:14.080Z,11.91
2024-01-26T06:57:17.529Z,11.87
2024-01-26T06:58:19.938Z,11.86
2024-01-26T06:59:23.249Z,11.95
2024-01-26T07:00:25.519Z,11.96
2024-01-26T07:01:28.820Z,12.01
2024-01-26T07:02:33.514Z,12.07
2024-01-26T07:03:38.465Z,12.00
2024-01-26T07:04:40.892Z,12.00
2024-01-26T07:05:44.773Z,11.97
2024-01-26T07:06:47.468Z,12.05
2024-01-26T07:07:52.640Z,12.15
2024-01-26T07:08:54.962Z,12.17
2024-01-26T07:09:58.326Z,12.10
2024-01-26T07:11:01.709Z,12.07
2024-01-26T07:12:05.398Z,12.04
2024-01-26T07:13:07.644Z,11.93
2024-01-26T07:14:13.537Z,11.97
2024-01-26T07:15:16.947Z,11.97
2024-01-26T07:16:20.983Z,12.08
2024-01-26T07:17:23.665Z,12.08
2024-01-26T07:18:27.321Z,12.06
2024-01-26T07:19:29.815Z,12.12
2024-01-26T07:20:37.656Z,12.22
2024-01-26T07:21:41.241Z,12.35
2024-01-26T07:22:43.699Z,12.46
2024-01-26T07:23:50.693Z,12.55
2024-01-26T07:24:54.696Z,12.64
2024-01-26T07:25:58.059Z,12.69
2024-01-26T07:27:00.491Z,12.77
2024-01-26T07:28:07.164Z,12.88
2024-01-26T07:29:09.520Z,12.90
2024-01-26T07:30:13.715Z,12.92
2024-01-26T07:31:16.204Z,12.96
2024-01-26T07:32:20.078Z,12.96
2024-01-26T07:33:22.454Z,12.96
2024-01-26T07:34:27.716Z,12.99
2024-01-26T07:35:31.746Z,13.05
2024-01-26T07:36:38.281Z,13.07
2024-01-26T07:37:41.307Z,12.99
2024-01-26T07:38:44.725Z,12.95
2024-01-26T07:39:48.352Z,12.97
2024-01-26T07:40:51.617Z,12.99
2024-01-26T07:41:54.505Z,12.92
2024-01-26T07:42:57.953Z,12.82
2024-01-26T07:44:01.367Z,12.94
2024-01-26T07:45:04.476Z,12.95
2024-01-26T07:46:07.947Z,12.96
2024-01-26T07:47:10.165Z,13.04
2024-01-26T07:48:14.436Z,12.98
2024-01-26T07:49:17.010Z,13.01
2024-01-26T07:50:20.793Z,13.02
2024-01-26T07:51:23.222Z,13.10
2024-01-26T07:52:25.715Z,13.18
2024-01-26T07:53:28.964Z,13.24
2024-01-26T07:54:31.479Z,13.32
2024-01-26T07:55:36.289Z,13.32
2024-01-26T07:56:38.546Z,13.41
2024-01-26T07:57:42.104Z,13.46
2024-01-26T07:58:44.366Z,13.51
2024-01-26T07:59:47.907Z,13.38
2024-01-26T08:00:50.508Z,13.27
2024-01-26T08:01:53.852Z,13.33
2024-01-26T08:02:56.264Z,13.14
2024-01-26T08:03:59.892Z,13.25
2024-01-26T08:05:03.542Z,13.42
2024-01-26T08:06:07.304Z,13.64
2024-01-26T08:07:09.790Z,13.77
2024-01-26T08:08:13.352Z,13.90
2024-01-26T08:09:15.722Z,13.95
2024-01-26T08:10:19.956Z,13.99
2024-01-26T08:11:25.003Z,14.07
2024-01-26T08:12:38.567Z,14.03
2024-01-26T08:13:47.060Z,14.00
2024-01-26T08:14:50.579Z,13.87
2024-01-26T08:15:53.937Z,13.88
2024-01-26T08:16:57.301Z,13.75
2024-01-26T08:18:00.041Z,13.72
2024-01-26T08:19:03.789Z,13.67
2024-01-26T08:20:07.314Z,13.48
2024-01-26T08:21:12.710Z,13.71
2024-01-26T08:22:15.577Z,13.84
2024-01-26T08:23:18.860Z,14.05
2024-01-26T08:24:21.640Z,14.26
2024-01-26T08:25:25.405Z,14.51
2024-01-26T08:26:29.947Z,14.79
2024-01-26T08:27:33.309Z,15.04
2024-01-26T08:28:35.638Z,15.35
2024-01-26T08:29:38.942Z,15.74
2024-01-26T08:30:43.328Z,16.09
2024-01-26T08:31:46.738Z,16.01
2024-01-26T08:32:49.115Z,16.49
2024-01-26T08:33:53.011Z,16.97
2024-01-26T08:34:55.636Z,17.46
2024-01-26T08:35:59.257Z,17.76
2024-01-26T08:37:01.777Z,18.16
2024-01-26T08:38:05.464Z,18.23
2024-01-26T08:39:13.391Z,18.12
2024-01-26T08:40:17.536Z,18.31
2024-01-26T08:41:19.998Z,18.57
2024-01-26T08:42:24.820Z,18.54
2024-01-26T08:43:27.633Z,19.06
2024-01-26T08:44:32.152Z,19.42
2024-01-26T08:45:34.916Z,19.73
2024-01-26T08:46:38.313Z,19.72
2024-01-26T08:47:40.594Z,19.90
2024-01-26T08:48:44.031Z,19.69
2024-01-26T08:49:46.443Z,19.54
2024-01-26T08:50:49.839Z,19.36
2024-01-26T08:51:52.588Z,19.35
2024-01-26T08:52:55.922Z,19.54
2024-01-26T08:53:58.131Z,19.59
2024-01-26T08:55:00.393Z,19.33
2024-01-26T08:56:06.398Z,19.86
2024-01-26T08:57:08.697Z,20.06
2024-01-26T08:58:13.496Z,19.82
2024-01-26T08:59:16.565Z,20.41
2024-01-26T09:00:21.127Z,20.58
2024-01-26T09:01:25.405Z,20.67
2024-01-26T09:02:29.400Z,20.69
2024-01-26T09:03:31.881Z,20.75
2024-01-26T09:04:35.240Z,20.99
2024-01-26T09:05:37.774Z,20.87
2024-01-26T09:06:41.214Z,20.83
2024-01-26T09:07:43.524Z,20.90
2024-01-26T09:08:47.277Z,21.09
2024-01-26T09:09:49.597Z,21.08
2024-01-26T09:10:53.236Z,21.26
2024-01-26T09:11:56.132Z,21.37
2024-01-26T09:12:59.442Z,21.44
2024-01-26T09:14:03.182Z,21.60
2024-01-26T09:15:06.308Z,21.50
2024-01-26T09:16:12.634Z,21.80
2024-01-26T09:17:14.981Z,22.00
2024-01-26T09:18:18.865Z,22.42
2024-01-26T09:19:21.450Z,22.09
2024-01-26T09:20:25.536Z,22.52
2024-01-26T09:21:27.806Z,22.55
2024-01-26T09:22:30.260Z,22.14
2024-01-26T09:23:33.815Z,22.25
2024-01-26T09:24:36.183Z,22.29
2024-01-26T09:25:38.497Z,22.70
2024-01-26T09:26:43.066Z,22.33
2024-01-26T09:27:46.552Z,22.52
2024-01-26T09:28:49.947Z,22.52
2024-01-26T09:29:53.708Z,22.21
2024-01-26T09:30:57.183Z,22.49
2024-01-26T09:32:00.908Z,22.07
2024-01-26T09:33:04.601Z,22.12
2024-01-26T09:34:08.158Z,21.77
2024-01-26T09:35:11.428Z,21.78
2024-01-26T09:36:15.231Z,21.86
2024-01-26T09:37:18.364Z,21.61
2024-01-26T09:38:21.665Z,21.82
2024-01-26T09:39:24.046Z,21.19
2024-01-26T09:40:27.656Z,21.94
2024-01-26T09:41:30.077Z,22.20
2024-01-26T09:42:33.388Z,22.57
2024-01-26T09:43:36.200Z,21.97
2024-01-26T09:44:38.986Z,22.26
2024-01-26T09:45:44.277Z,22.88
2024-01-26T09:46:46.723Z,23.07
2024-01-26T09:47:53.413Z,22.96
2024-01-26T09:48:58.650Z,22.45
2024-01-26T09:50:05.844Z,22.81
2024-01-26T09:51:08.430Z,22.85
2024-01-26T09:52:13.518Z,22.77
2024-01-26T09:53:17.973Z,22.65
2024-01-26T09:54:22.703Z,22.99
2024-01-26T09:55:25.852Z,23.04
2024-01-26T09:56:29.312Z,23.27
2024-01-26T09:57:32.553Z,23.51
2024-01-26T09:58:36.233Z,23.81
2024-01-26T09:59:38.580Z,23.40
2024-01-26T10:00:46.442Z,23.53
2024-01-26T10:01:50.879Z,23.69
2024-01-26T10:02:54.859Z,23.31
2024-01-26T10:03:57.941Z,22.88
2024-01-26T10:05:01.222Z,22.08
2024-01-26T10:06:04.370Z,21.71
2024-01-26T10:07:07.742Z,22.26
2024-01-26T10:08:10.397Z,22.12
2024-01-26T10:09:15.306Z,22.51
2024-01-26T10:10:18.534Z,23.12
2024-01-26T10:11:21.869Z,22.40
2024-01-26T10:12:24.741Z,22.32
2024-01-26T10:13:28.347Z,22.61
2024-01-26T10:14:31.742Z,22.95
2024-01-26T10:15:36.063Z,22.74
2024-01-26T10:16:40.377Z,21.87
2024-01-26T10:17:46.129Z,21.11
2024-01-26T10:18:49.669Z,21.21
2024-01-26T10:19:53.421Z,22.45
2024-01-26T10:20:57.523Z,23.11
2024-01-26T10:22:02.201Z,23.89
2024-01-26T10:23:06.186Z,23.93
2024-01-26T10:24:10.345Z,23.81
2024-01-26T10:25:13.292Z,23.35
2024-01-26T10:26:16.954Z,22.28
2024-01-26T10:27:19.971Z,21.96
2024-01-26T10:28:22.367Z,22.37
2024-01-26T10:29:26.117Z,22.56
2024-01-26T10:30:28.438Z,23.25
2024-01-26T10:31:31.770Z,23.10
2024-01-26T10:32:35.716Z,23.04
2024-01-26T10:33:43.893Z,23.84
2024-01-26T10:34:49.476Z,23.59
2024-01-26T10:35:54.069Z,23.64
2024-01-26T10:37:02.049Z,23.06
2024-01-26T10:38:11.158Z,23.17
2024-01-26T10:39:20.875Z,23.33
2024-01-26T10:40:25.252Z,23.53
2024-01-26T10:41:32.422Z,23.80
2024-01-26T10:42:37.988Z,24.37
2024-01-26T10:43:41.700Z,24.56
2024-01-26T10:44:45.741Z,24.91
2024-01-26T10:45:48.402Z,24.61
2024-01-26T10:46:55.149Z,25.06
2024-01-26T10:48:00.162Z,25.75
2024-01-26T10:49:04.584Z,25.47
2024-01-26T10:50:11.065Z,25.91
2024-01-26T10:51:16.077Z,26.29
2024-01-26T10:52:20.127Z,25.78
2024-01-26T10:53:24.131Z,25.81
2024-01-26T10:54:26.765Z,25.80
2024-01-26T10:55:31.247Z,25.61
2024-01-26T10:56:33.933Z,25.58
2024-01-26T10:57:37.207Z,26.22
2024-01-26T10:58:39.642Z,27.10
2024-01-26T10:59:44.770Z,27.89
2024-01-26T11:00:47.278Z,28.27
2024-01-26T11:01:51.475Z,28.43
2024-01-26T11:02:54.670Z,28.20
2024-01-26T11:03:59.769Z,26.90
2024-01-26T11:05:03.723Z,27.19
2024-01-26T11:06:09.911Z,27.83
2024-01-26T11:07:12.576Z,27.84
2024-01-26T11:08:22.829Z,28.06
2024-01-26T11:09:27.867Z,28.28
2024-01-26T11:10:32.452Z,28.12
2024-01-26T11:11:36.657Z,28.49
2024-01-26T11:12:40.105Z,28.33
2024-01-26T11:13:43.572Z,28.58
2024-01-26T11:14:45.882Z,28.89
2024-01-26T11:15:50.843Z,29.14
2024-01-26T11:16:53.728Z,28.51
2024-01-26T11:17:58.942Z,28.66
2024-01-26T11:19:04.004Z,28.29
2024-01-26T11:20:13.971Z,27.93
2024-01-26T11:21:21.045Z,28.31
2024-01-26T11:22:23.589Z,28.58
2024-01-26T11:23:26.875Z,28.60
2024-01-26T11:24:34.515Z,27.97
2024-01-26T11:25:39.396Z,27.22
2024-01-26T11:26:42.185Z,27.25
2024-01-26T11:27:44.440Z,26.97
2024-01-26T11:28:48.729Z,26.26
2024-01-26T11:29:51.211Z,26.78
2024-01-26T11:30:55.308Z,27.70
2024-01-26T11:31:57.674Z,27.51
2024-01-26T11:33:02.569Z,27.32
2024-01-26T11:34:06.445Z,26.49
2024-01-26T11:35:18.509Z,26.41
2024-01-26T11:36:21.726Z,26.72
2024-01-26T11:37:28.163Z,27.06
2024-01-26T11:38:30.804Z,27.06
2024-01-26T11:39:35.212Z,27.04
2024-01-26T11:40:38.678Z,26.87
2024-01-26T11:41:44.981Z,26.31
2024-01-26T11:42:47.831Z,26.50
2024-01-26T11:43:54.551Z,26.62
2024-01-26T11:45:08.498Z,26.76
2024-01-26T11:46:12.454Z,26.98
2024-01-26T11:47:15.143Z,27.41
2024-01-26T11:48:19.745Z,26.96
2024-01-26T11:49:23.704Z,26.93
2024-01-26T11:50:27.172Z,26.22
2024-01-26T11:51:29.581Z,26.03
2024-01-26T11:52:33.578Z,26.04
2024-01-26T11:53:36.046Z,25.90
2024-01-26T11:54:39.654Z,26.09
2024-01-26T11:55:43.076Z,25.56
2024-01-26T11:56:45.532Z,25.96
2024-01-26T11:57:49.576Z,26.41
2024-01-26T11:58:52.155Z,26.35
2024-01-26T11:59:55.929Z,26.06
2024-01-26T12:01:01.366Z,26.47
2024-01-26T12:02:05.285Z,26.79
2024-01-26T12:03:10.114Z,26.29
2024-01-26T12:04:13.273Z,26.43
2024-01-26T12:05:18.755Z,26.06
2024-01-26T12:06:22.227Z,25.99
2024-01-26T12:07:25.147Z,25.98
2024-01-26T12:08:28.795Z,26.30
2024-01-26T12:09:31.302Z,25.90
2024-01-26T12:10:33.860Z,26.53
2024-01-26T12:11:38.247Z,26.44
2024-01-26T12:12:41.296Z,26.36
2024-01-26T12:13:45.527Z,26.68
2024-01-26T12:14:48.361Z,27.16
2024-01-26T12:15:51.048Z,27.18
2024-01-26T12:16:54.226Z,26.83
2024-01-26T12:17:59.371Z,26.59
2024-01-26T12:19:03.152Z,26.58
2024-01-26T12:20:09.573Z,26.25
2024-01-26T12:21:14.724Z,25.96
2024-01-26T12:22:18.628Z,25.98
2024-01-26T12:23:22.920Z,26.19
2024-01-26T12:24:25.499Z,26.02
2024-01-26T12:25:29.137Z,25.20
2024-01-26T12:26:31.790Z,25.40
2024-01-26T12:27:35.295Z,25.64
2024-01-26T12:28:37.790Z,25.23
2024-01-26T12:29:41.396Z,24.77
2024-01-26T12:30:47.078Z,25.35
2024-01-26T12:31:51.225Z,25.39
2024-01-26T12:32:53.655Z,25.21
2024-01-26T12:33:57.832Z,25.26
2024-01-26T12:35:00.368Z,25.35
2024-01-26T12:36:03.973Z,25.25
2024-01-26T12:37:11.218Z,24.97
2024-01-26T12:38:14.995Z,24.55
2024-01-26T12:39:17.217Z,24.31
2024-01-26T12:40:20.630Z,24.18
2024-01-26T12:41:24.482Z,24.19
2024-01-26T12:42:27.927Z,24.14
2024-01-26T12:43:30.248Z,23.88
2024-01-26T12:44:35.019Z,23.79
2024-01-26T12:45:37.479Z,23.78
2024-01-26T12:46:42.460Z,23.63
2024-01-26T12:47:44.822Z,23.47
2024-01-26T12:48:48.708Z,23.63
2024-01-26T12:49:51.152Z,23.89
2024-01-26T12:50:54.824Z,23.92
2024-01-26T12:51:58.131Z,24.35
2024-01-26T12:53:02.857Z,24.36
2024-01-26T12:54:05.290Z,24.07
2024-01-26T12:55:11.044Z,23.95
2024-01-26T12:57:16.489Z,24.56
2024-01-26T12:58:18.875Z,24.73
2024-01-26T12:59:22.498Z,24.65
2024-01-26T13:00:24.924Z,24.68
2024-01-26T13:01:28.326Z,24.93
2024-01-26T13:02:30.731Z,24.94
2024-01-26T13:03:34.541Z,24.89
2024-01-26T13:04:37.017Z,24.91
2024-01-26T13:05:40.243Z,24.71
2024-01-26T13:06:43.891Z,24.80
2024-01-26T13:07:47.685Z,25.12
2024-01-26T13:08:52.405Z,25.44
2024-01-26T13:09:54.638Z,25.48
2024-01-26T13:10:57.827Z,25.24
2024-01-26T13:12:02.834Z,25.09
2024-01-26T13:13:05.174Z,24.89
2024-01-26T13:14:08.644Z,24.64
2024-01-26T13:15:11.184Z,24.22
2024-01-26T13:16:14.390Z,24.00
2024-01-26T13:17:16.953Z,23.84
2024-01-26T13:18:25.599Z,23.65
2024-01-26T13:19:30.827Z,23.38
2024-01-26T13:20:34.817Z,23.05
2024-01-26T13:21:37.393Z,22.82
2024-01-26T13:22:40.826Z,22.88
2024-01-26T13:23:43.192Z,23.06
2024-01-26T13:24:48.501Z,23.08
2024-01-26T13:25:53.671Z,22.78
2024-01-26T13:26:57.560Z,22.45
2024-01-26T13:28:00.712Z,22.41
2024-01-26T13:29:04.421Z,22.27
2024-01-26T13:30:07.901Z,22.53
2024-01-26T13:31:11.581Z,22.85
2024-01-26T13:32:13.824Z,23.02
2024-01-26T13:33:17.681Z,22.73
2024-01-26T13:34:20.594Z,22.93
2024-01-26T13:35:24.718Z,22.97
2024-01-26T13:36:27.757Z,23.23
2024-01-26T13:37:31.040Z,23.14
2024-01-26T13:38:33.735Z,23.28
2024-01-26T13:39:37.530Z,22.92